F/V Pasiphae 2 — FMFN — position and weather

sailwx.info

Track history (hours):
 
Tides and Currents Weather Stations Pressure Air Temp Water Temp Dewpoint Dewpoint Depression Visibility Wind Speed Wind Dir Waves Ship Positions

F/V Pasiphae 2

Last reported at 2016-May-02 03:30 UTC. Time now 2016-May-02 23:17 UTC.
Position N 47°16' W 003°25'.

Length 14 m.

Type: Fishing. MMSI: 228224800.

Date/timePositionNaut miles runAvg speedWind from/ knotsBaromVisibWave heightAir tempDewpointWater temp
2016-May-02 03:30N 47°16' W 003°25'9 9.5
2016-May-02 02:34N 47°25' W 003°24'9 9.4
2016-May-02 01:33N 47°34' W 003°23'  
2016-Apr-29 02:16N 47°44' W 003°22'0 0.2
2016-Apr-29 01:33N 47°44' W 003°22'5 4.5
2016-Apr-29 00:34N 47°39' W 003°23'8 8.5
2016-Apr-28 23:34N 47°31' W 003°23'8 8.4
2016-Apr-28 22:33N 47°22' W 003°23'8 8.3
2016-Apr-28 21:34N 47°14' W 003°24'9 0.5
2016-Apr-28 03:33N 47°23' W 003°25'9 8.8
2016-Apr-28 02:34N 47°32' W 003°23'9 9.2
2016-Apr-28 01:33N 47°41' W 003°22'3 3.0
2016-Apr-28 00:34N 47°44' W 003°22'8 7.8
2016-Apr-27 23:34N 47°36' W 003°23'9 8.5
2016-Apr-27 22:33N 47°28' W 003°25'8 8.3
2016-Apr-27 21:34N 47°20' W 003°28'1 0.1
2016-Apr-27 04:04N 47°18' W 003°29'4 8.5
2016-Apr-27 03:33N 47°23' W 003°27'9 8.6
2016-Apr-27 02:33N 47°31' W 003°24'9 8.9
2016-Apr-27 01:34N 47°40' W 003°22'4 4.0
2016-Apr-27 00:33N 47°44' W 003°22'6 6.0
2016-Apr-26 23:33N 47°38' W 003°22'9 8.5
2016-Apr-26 22:33N 47°29' W 003°24'8 8.2
2016-Apr-26 21:34N 47°21' W 003°27'3 0.2
2016-Apr-26 04:16N 47°18' W 003°29'6 8.2
2016-Apr-26 03:33N 47°24' W 003°27'8 8.4
2016-Apr-26 02:33N 47°32' W 003°24'9 8.8
2016-Apr-26 01:33N 47°41' W 003°22'3 3.0
2016-Apr-26 00:33N 47°44' W 003°22'8 8.3
2016-Apr-25 23:33N 47°35' W 003°22'8 8.3
2016-Apr-25 22:33N 47°27' W 003°24'8 8.0
2016-Apr-25 21:33N 47°19' W 003°24'8 8.1
2016-Apr-25 20:33N 47°11' W 003°25'7 0.4
2016-Apr-25 03:32N 47°18' W 003°24'8 8.4
2016-Apr-25 02:33N 47°26' W 003°23'9 8.7
2016-Apr-25 01:33N 47°34' W 003°23'9 8.8
2016-Apr-25 00:33N 47°43' W 003°22'3 0.1
2016-Apr-22 21:33N 47°40' W 003°22'8 8.4
2016-Apr-22 20:33N 47°32' W 003°24'9 8.5
2016-Apr-22 19:34N 47°23' W 003°27'15 1.3
2016-Apr-22 08:06N 47°09' W 003°34'10 2.2
2016-Apr-22 03:33N 47°19' W 003°31'  
Track history (hours):
 
Tides and Currents Weather Stations Pressure Air Temp Water Temp Dewpoint Dewpoint Depression Visibility Wind Speed Wind Dir Waves Ship Positions

F/V Pasiphae 2

Last reported at 2016-May-02 03:30 UTC. Time now 2016-May-02 23:17 UTC.
Position N 47°16' W 003°25'.

Length 14 m.

Type: Fishing. MMSI: 228224800.

Date/timePositionNaut miles runAvg speedWind from/ knotsBaromVisibWave heightAir tempDewpointWater temp
2016-May-02 03:30N 47°16' W 003°25'9 9.5
2016-May-02 02:34N 47°25' W 003°24'9 9.4
2016-May-02 01:33N 47°34' W 003°23'  
2016-Apr-29 02:16N 47°44' W 003°22'0 0.2
2016-Apr-29 01:33N 47°44' W 003°22'5 4.5
2016-Apr-29 00:34N 47°39' W 003°23'8 8.5
2016-Apr-28 23:34N 47°31' W 003°23'8 8.4
2016-Apr-28 22:33N 47°22' W 003°23'8 8.3
2016-Apr-28 21:34N 47°14' W 003°24'9 0.5
2016-Apr-28 03:33N 47°23' W 003°25'9 8.8
2016-Apr-28 02:34N 47°32' W 003°23'9 9.2
2016-Apr-28 01:33N 47°41' W 003°22'3 3.0
2016-Apr-28 00:34N 47°44' W 003°22'8 7.8
2016-Apr-27 23:34N 47°36' W 003°23'9 8.5
2016-Apr-27 22:33N 47°28' W 003°25'8 8.3
2016-Apr-27 21:34N 47°20' W 003°28'1 0.1
2016-Apr-27 04:04N 47°18' W 003°29'4 8.5
2016-Apr-27 03:33N 47°23' W 003°27'9 8.6
2016-Apr-27 02:33N 47°31' W 003°24'9 8.9
2016-Apr-27 01:34N 47°40' W 003°22'4 4.0
2016-Apr-27 00:33N 47°44' W 003°22'6 6.0
2016-Apr-26 23:33N 47°38' W 003°22'9 8.5
2016-Apr-26 22:33N 47°29' W 003°24'8 8.2
2016-Apr-26 21:34N 47°21' W 003°27'3 0.2
2016-Apr-26 04:16N 47°18' W 003°29'6 8.2
2016-Apr-26 03:33N 47°24' W 003°27'8 8.4
2016-Apr-26 02:33N 47°32' W 003°24'9 8.8
2016-Apr-26 01:33N 47°41' W 003°22'3 3.0
2016-Apr-26 00:33N 47°44' W 003°22'8 8.3
2016-Apr-25 23:33N 47°35' W 003°22'8 8.3
2016-Apr-25 22:33N 47°27' W 003°24'8 8.0
2016-Apr-25 21:33N 47°19' W 003°24'8 8.1
2016-Apr-25 20:33N 47°11' W 003°25'7 0.4
2016-Apr-25 03:32N 47°18' W 003°24'8 8.4
2016-Apr-25 02:33N 47°26' W 003°23'9 8.7
2016-Apr-25 01:33N 47°34' W 003°23'9 8.8
2016-Apr-25 00:33N 47°43' W 003°22'3 0.1
2016-Apr-22 21:33N 47°40' W 003°22'8 8.4
2016-Apr-22 20:33N 47°32' W 003°24'9 8.5
2016-Apr-22 19:34N 47°23' W 003°27'15 1.3
2016-Apr-22 08:06N 47°09' W 003°34'10 2.2
2016-Apr-22 03:33N 47°19' W 003°31'  

Dump ship's entire track history